Terminal Aerodrome Forecast
Issued by NWS

Home | Current Version | Previous Version | Text Only | Print | Product List | Glossary On
Versions: 1 2 3 4 5 6 7 8 9 10 11 12 13
000
FTUS43 KMQT 120500
TAFSAW
TAF
KSAW 120538Z 1206/1306 22008KT P6SM BKN040
     FM121300 25006KT P6SM BKN030
     FM121700 02008KT P6SM BKN035
     FM122200 03008KT P6SM SCT040 BKN200
     FM130100 VRB03KT P6SM BKN080
      AMD LTD TO CLD VIS AND WIND TIL 121000=

USA.gov is the U.S. government's official web portal to all federal, state and local government web resources and services.